Swim to the Moon

Age Group Results

August 21, 2016


Results Provided by Race Timing Services http;//www.racetimeservices.com


Men: Top Finishers 14-18 19-24 25-29 30-34 35-39 40-44 45-49 50-54 55-59 60-64 65-69 70-74
Women: Top Finishers 0-13 14-18 19-24 25-29 30-34 35-39 40-44 45-49 50-54 55-59 60-64 65-69 70-74

5K Swim

Top

Male Open Winners

Place Name City Bib No Age Overall Total Time
1 Justin May Milford MI US 208 16 1 1:00:21
Top

Female Open Winners

Place Name City Bib No Age Overall Total Time
1 Katherine Pickard East Lansing MI US 209 27 3 1:01:07
Top

Male Masters Winners

Place Name City Bib No Age Overall Total Time
1 Matthew West Brighton MI US 203 41 4 1:02:52
Top

Female Masters Winners

Place Name City Bib No Age Overall Total Time
1 Lou Ann Discon 457 48 16 1:09:48
Top

Female 13 and under

Place Name City Bib No Age Overall Total Time
1 Abigail Ketslakh Ann Arbor MI US 519 13 19 1:12:29
Top

Male 14 to 18

Place Name City Bib No Age Overall Total Time
1 Austin Cabel Saint Charles IL US 216 15 2 1:01:03
2 Ben Reynolds Highland MI US 248 15 13 1:08:57
3 Josh Reynolds Highland MI US 247 15 14 1:09:00
4 Ethan Rothenbuhler Grosse Pointe MI US 305 15 29 1:16:39
5 Max Brow Milford MI US 245 16 38 1:18:18
6 Ryan Novak Milford MI US 246 17 46 1:20:05
7 Eric Harding Milford MI US 404 17 62 1:23:09
8 Bryan Sclabassi Milford MI US 422 16 69 1:24:16
9 Brad Mondrush Milford MI US 315 15 71 1:24:48
Top

Female 14 to 18

Place Name City Bib No Age Overall Total Time
1 Farrah Timmol Highland MI US 233 18 33 1:17:14
2 Olivia Olk Chelsea MI US 254 14 50 1:21:40
3 Taylor Brodbeck Chelsea MI US 218 17 53 1:21:55
4 Kathleen Dickinson Grass Lake MI US 256 17 54 1:21:57
5 Rachel Haitonic Fremont OH US 279 14 55 1:22:00
6 Molly Olk Chelsea MI US 253 17 95 1:30:20
7 Kaia Newman Chelsea MI US 303 16 108 1:33:04
8 Kaylee Dasher Schofield WI US 451 15 172 1:52:19
Top

Male 19 to 24

Place Name City Bib No Age Overall Total Time
1 Jared Hall Indianapolis IN US 210 24 27 1:16:16
2 Theo Ward Skokie IL US 259 20 66 1:23:36
Top

Female 19 to 24

Place Name City Bib No Age Overall Total Time
1 Elizabeth Williams Carlsbad CA US 213 23 8 1:06:46
2 Andrea Shepard Evanston IL US 260 20 18 1:11:34
3 Emily Roney Evanston IL US 258 20 26 1:16:06
4 Kate Wiseman Chicago IL US 370 24 28 1:16:36
5 Nicole Johnson Bowling Green OH US 332 23 45 1:19:56
6 Christine Dolikian Troy MI US 321 23 58 1:22:22
7 Michelle Howard Monroe MI US 376 24 150 1:41:59
8 Abigail Boonzaaijer Cadillac MI US 340 20 158 1:44:18
9 Josephine Muscato Pinckney MI US 446 19 179 1:55:46
Top

Male 25 to 29

Place Name City Bib No Age Overall Total Time
1 Christopher Wiederecht Royal Oak MI US 204 25 15 1:09:22
2 Jorge Gonzalez Rochester Hills MI US 223 29 17 1:09:51
3 Brian Rockwell Auburn Hills MI US 217 28 21 1:13:43
4 Isaac Steinbrunner Brighton MI US 414 25 63 1:23:10
5 Thomas Trenkamp Lansing MI US 436 28 77 1:25:48
6 Scott Bos Brighton MI US 353 28 80 1:27:02
7 Kyle Zunker Dewitt MI US 302 25 103 1:32:40
Top

Female 25 to 29

Place Name City Bib No Age Overall Total Time
1 Elyse Schultz Dearborn MI US 220 26 30 1:16:58
2 Laura Strout Ann Arbor MI US 407 26 44 1:19:55
3 Kirsten Clemans Comstock Park MI US 265 25 72 1:25:00
4 Shannon Leary Maumee OH US 266 28 166 1:49:27
5 Erica Henderson Lapeer MI US 320 25 195 2:00:11
Top

Male 30 to 34

Place Name City Bib No Age Overall Total Time
1 Christopher Smith Highland MI US 243 33 61 1:23:06
2 Travis Roehm Grand Rapids MI US 273 34 70 1:24:26
3 Mike Zwada Royal Oak MI US 224 31 74 1:25:09
4 Eric Brandner West Lafayette IN US 444 32 97 1:30:48
Top

Female 30 to 34

Place Name City Bib No Age Overall Total Time
1 Holly Georgeson Racine WI US 295 32 20 1:13:41
2 Alicia Crank Sterling Heights MI US 380 30 116 1:34:44
3 Kali Bayes Fort Gratiot MI US 357 32 136 1:39:02
4 Katie Glupker Ann Arbor MI US 291 33 140 1:39:30
5 Lauren Gehbauer Sterling Heights MI US 369 31 145 1:40:53
6 Hong Weng South Lyon MI US 397 34 174 1:52:58
7 Amber Trepkowski Sterling Heights MI US 382 32 204 2:05:53
Top

Male 35 to 39

Place Name City Bib No Age Overall Total Time
1 Jeremy Kennedy Ann Arbor MI US 206 39 7 1:06:08
2 Jay Zawacki Ann Arbor MI US 215 38 9 1:07:11
3 Peter Swanton Canton MI US 454 37 56 1:22:07
4 Len Fritz Brownstown MI US 280 37 73 1:25:06
5 Rich Hansen Webberville MI US 311 37 83 1:27:38
6 Stephen Sinas East Lansing MI US 284 35 84 1:27:41
7 Michael McLaren Beaverton MI US 442 36 191 1:59:23
8 William McLaren Berkley MI US 443 39 192 1:59:25
Top

Female 35 to 39

Place Name City Bib No Age Overall Total Time
1 Erin Tobias Indianapolis IN US 225 38 10 1:07:56
2 Joni Williamson Indianapolis IN US 214 35 11 1:08:09
3 Jennifer Korman Ferndale MI US 205 37 24 1:15:52
4 Beth Burkhart Chicago IL US 262 39 31 1:17:06
5 Jane Panikkar Saline MI US 255 35 32 1:17:11
6 Erin Amos Grosse Pointe MI US 317 36 106 1:33:00
Top

Male 40 to 44

Place Name City Bib No Age Overall Total Time
1 Josh Dorfzaun Pittsburgh PA US 244 44 36 1:17:38
2 Shaun Burgess West Bloomfield MI US 271 40 115 1:34:23
3 Patrick Brown Grass Lake MI US 283 44 147 1:41:13
4 Jim Stewart Mason MI US 418 44 184 1:57:59
5 Scott Greene Ann Arbor MI US 299 41 205 2:07:48
Top

Female 40 to 44

Place Name City Bib No Age Overall Total Time
1 Jeannette Stawski Ann Arbor MI US 264 41 65 1:23:34
2 Emily McKimmy Royal Oak MI US 462 41 87 1:28:00
3 Joanna Graham Shelby Twp MI US 428 43 100 1:31:17
4 Arianne Faunt Westland MI US 325 42 112 1:33:40
5 Karen Darling Chicago IL US 268 41 114 1:34:21
6 Carrie Stralow Rockford IL US 358 41 117 1:34:50
7 Heather Dixon Clarkston MI US 277 40 119 1:35:10
8 Kara Priehs Milford MI US 292 44 120 1:35:24
9 Shelly Stempfle Ferndale MI US 308 41 123 1:36:13
10 Tomoko Gnodtke Okemos MI US 306 43 148 1:41:23
11 Whitney Tyner Milford MI US 351 40 165 1:48:04
12 Kendra Carroll Lambertville MI US 381 44 185 1:58:08
13 Angeline Muscato Pinckney MI US 445 42 199 2:03:21
Top

Male 45 to 49

Place Name City Bib No Age Overall Total Time
1 Chadwick Steed Huntington Woods MI US 207 45 12 1:08:25
2 Matthew Blamy Novi MI 458 47 35 1:17:32
3 Bruce Robinson Ann Arbor MI US 237 49 47 1:20:10
4 Jon Cabel Saint Charles IL US 309 46 48 1:21:13
5 Bret Forfar North Branch MI US 222 47 60 1:22:45
6 Jordan Karp Pittsburgh PA US 343 46 79 1:27:00
7 Charlie Ferro Grand Rapids MI US 400 49 91 1:28:47
8 Roderick MacLachlan Toledo OH US 294 49 102 1:32:07
9 Charles Parkerson Charlotte NC US 307 46 111 1:33:35
10 Michael Greifenberg Troy MI US 328 49 138 1:39:15
11 Nathanael Evans Milford MI US 344 46 146 1:40:59
12 John Flynn Grosse Pointe MI US 263 49 156 1:43:51
13 Ken Wetstein Defiance OH US 413 47 187 1:58:27
14 David Anderson Fort Gratiot MI US 326 45 188 1:58:42
15 Dave Colarossi New York NY US 363 48 221 2:43:31
Top

Female 45 to 49

Place Name City Bib No Age Overall Total Time
1 Kristin Burgard Ann Arbor MI US 230 47 43 1:19:22
2 Marjorie Verrell Laingsburg MI US 240 45 52 1:21:43
3 Joanna Krenk Canton MI US 336 45 75 1:25:16
4 Karen Sanders Okemos MI US 374 47 88 1:28:19
5 Melissa Shaner Toledo OH US 242 48 90 1:28:37
6 Julia MacLachlan Toledo OH US 290 47 92 1:29:21
7 Jessie Schenk Grosse Pointe Park MI US 304 46 94 1:30:06
8 Jill Basydlo Highland MI US 318 48 96 1:30:44
9 Michelle Alamo Royal Oak MI US 257 46 101 1:31:53
10 Susan Dziedzic Milan MI US 456 49 124 1:36:38
11 Joan Remski Dearborn MI US 331 48 128 1:37:19
12 Erika Thompson Northville MI US 402 48 130 1:37:48
13 Paula Grech Grosse Pointe MI US 355 48 132 1:38:15
14 Renee Small Toledo OH US 333 47 143 1:40:19
15 Christina Morales Byron Center MI US 347 48 155 1:43:42
16 Roberta Routt Brighton MI US 395 47 161 1:45:30
17 Ellen Tober Paw Paw MI US 432 45 178 1:55:26
18 Laura Stade Emmett MI US 202 46 207 2:10:50
Top

Male 50 to 54

Place Name City Bib No Age Overall Total Time
1 Rod Gyurke Oregon OH US 460 50 5 1:04:38
2 David Haggett Palatine IL US 234 52 23 1:15:27
3 Douglas Armstrong Ann Arbor MI US 228 50 51 1:21:41
4 Jay Little Saline MI US 377 53 59 1:22:30
5 Jeff Parent Huntington Woods MI US 378 52 81 1:27:29
6 Russ Tarnowsky Waterford MI US 235 50 85 1:27:46
7 Glenn Hodges Rochester MI US 252 52 86 1:27:56
8 David Rettell Ann Arbor MI US 461 50 98 1:30:54
9 Hicham Farabi Commerce Township MI US 270 50 105 1:32:58
10 John Clifford Dearborn MI US 330 52 113 1:33:43
11 Martin Wooledge Mason MI US 286 53 133 1:38:29
12 Patrick Convery Temperance MI US 387 54 134 1:38:42
13 Greg Powell Oregon OH US 354 52 141 1:39:43
14 Dennis Ward Ypsilanti MI US 359 52 152 1:42:30
15 Michal Ovsjannikov Rochester MI US 459 50 153 1:42:35
16 David Gerdes Ann Arbor MI US 349 52 154 1:43:28
17 Dale Williams Troy MI US 447 50 176 1:54:46
18 Gregory Armand Bolingbrook IL US 339 53 177 1:55:13
19 Tadd Klettner Marysville MI US 287 51 189 1:59:10
20 Herman Arrivillaga Indianapolis IN US 419 51 198 2:02:48
21 Dan Miller Birmingham MI US 367 50 209 2:11:56
22 Greg Zunker Dewitt MI US 365 53 210 2:14:11
23 Anthony Colarossi Dewitt MI US 362 54 213 2:16:41
Top

Female 50 to 54

Place Name City Bib No Age Overall Total Time
1 Karen Spaun Farmington MI US 212 52 22 1:14:13
2 Karen Rosinski Garden City MI US 231 54 41 1:19:13
3 Laura Pink-Baker Ann Arbor MI US 239 50 64 1:23:27
4 Judy Riben West Bloomfield MI US 285 50 67 1:23:56
5 Laurie Stober Yellow Springs OH US 288 52 99 1:31:05
6 Jacquie Swanton Saginaw MI US 293 52 118 1:34:55
7 Jackie Mall Ann Arbor MI US 375 53 135 1:38:57
8 Ingrid Crause Ann Arbor MI US 379 53 142 1:39:49
9 Colleen Hoffman Canton MI US 342 51 149 1:41:42
10 Suzanne Piepszowski Detroit MI US 327 53 157 1:44:11
11 Lisa Pollack Northville MI US 423 50 169 1:51:08
12 Paula Page Brighton MI US 396 54 170 1:51:12
13 Julia Shildmyer-Heighway Indianapolis IN US 393 53 180 1:55:50
14 Barb Johnston Commerce Township MI US 401 50 196 2:00:30
15 Patricia Clark-Martin Rochester MI US 329 54 212 2:16:03
16 Jackie Giusti South Lyon MI US 433 50 214 2:20:58
Top

Male 55 to 59

Place Name City Bib No Age Overall Total Time
1 Mike Schuldinger Waterford MI US 211 55 6 1:05:02
2 Michael Robie Schaumburg IL US 250 56 25 1:15:54
3 Dave Oplinger Lapel IN US 221 58 34 1:17:16
4 Seth Sadis Ann Arbor MI US 229 55 39 1:18:23
5 Mitchell Berman Mentor OH US 226 56 42 1:19:19
6 Ron Fournier Rochester Hills MI US 251 58 104 1:32:48
7 David Zedonis Fishers IN US 282 57 122 1:35:58
8 Stephen Crowell Brighton MI US 297 58 125 1:36:40
9 George Sveda Farmington MI US 316 55 127 1:37:02
10 Bruce Hubbell Grosse Pointe MI US 281 56 129 1:37:24
11 Jeff Gibbs Toledo OH US 335 56 139 1:39:22
12 Scott Thorpe Milford MI US 346 59 151 1:42:28
13 Bruce Bettinghaus Dewitt MI US 301 56 163 1:45:59
14 Stuart Cubbon Toledo OH US 296 59 164 1:47:36
15 Rob Simon Maumee OH US 435 56 168 1:50:00
16 Tim Ward Port Huron MI US 386 57 171 1:52:08
17 Steven Kineman Charlotte MI US 391 57 173 1:52:53
18 Denys De Castilhos Lansing MI US 398 56 201 2:04:41
19 James Bixler Saint Clair MI US 417 56 208 2:11:05
20 David Drain Lowell MI US 352 58 218 2:28:12
Top

Female 55 to 59

Place Name City Bib No Age Overall Total Time
1 Brenda Cartwright Okemos MI US 373 56 40 1:18:24
2 Renee Rutz Ann Arbor MI US 278 56 76 1:25:47
3 Lori Friesner Fenton MI US 314 55 78 1:25:58
4 Barbara Belfore Grosse Pointe Park MI US 322 56 89 1:28:22
5 Jacqueline Thorpe Milford MI US 249 56 93 1:29:22
6 Janet Duncan Ann Arbor MI US 312 55 109 1:33:16
7 Margaret Gallihugh Lansing MI US 269 55 121 1:35:38
8 Annie Lowery Clinton Township MI US 323 57 131 1:38:02
9 Holly Uecker-Herman Grand Rapids MI US 424 59 137 1:39:15
10 Marilyn Bradford Highland MI US 455 59 162 1:45:43
11 Susan Soltis Plainfield IL US 360 55 186 1:58:16
12 Patricia Johnson Saginaw MI US 431 55 190 1:59:13
13 Danita Milbeck Dearborn MI US 399 58 203 2:05:31
14 Karen Creaser Grand Ledge MI US 420 55 215 2:26:06
15 Veronica Jackson Lansing MI US 438 57 217 2:27:48
16 Mary Little Metamora MI US 449 56 219 2:32:01
17 Barbara Corn Warren MI US 416 58 220 2:33:21
Top

Male 60 to 64

Place Name City Bib No Age Overall Total Time
1 David Sing Ann Arbor MI US 261 62 49 1:21:15
2 Paul Berman Shaker Heights OH US 241 63 57 1:22:16
3 Edward Bokros Chelsea MI US 337 60 68 1:24:07
4 James Deren White Lake MI US 348 62 160 1:45:00
5 Marty Ackley Dewitt MI US 390 60 175 1:53:47
6 William Moran Milan MI US 408 61 194 1:59:32
7 Steve Heithoff Port Huron MI US 425 62 202 2:05:26
Top

Female 60 to 64

Place Name City Bib No Age Overall Total Time
1 Joannie Eastridge Brighton MI US 300 62 110 1:33:27
2 Sue Hadden Ann Arbor MI US 372 62 126 1:36:58
3 Marilyn Reichenbach Brighton MI US 319 61 167 1:49:34
4 Priscilla Watts Milfordd MI US 405 61 181 1:56:42
5 Susan Haapaniemi Farmington MI US 403 61 197 2:01:35
6 Cynthia Erickson East Lansing MI US 439 63 206 2:10:03
7 Mary Kay Gavitt Grand Ledge MI US 448 61 211 2:15:57
Top

Male 65 to 69

Place Name City Bib No Age Overall Total Time
1 Gaard Arneson Ann Arbor MI US 219 68 37 1:18:03
2 Peder Dahlberg Oak Park IL US 267 67 82 1:27:30
3 Tom Scallen Grosse Pointe Park MI US 236 69 107 1:33:01
4 Robert Rossbach Grosse Pointe MI US 389 65 144 1:40:21
5 Brad Eastridge Brighton MI US 361 66 183 1:57:12
6 Dale Thibodeau Brighton MI US 394 67 193 1:59:28
Top

Female 65 to 69

Place Name City Bib No Age Overall Total Time
1 Robie Wagester North Branch MI US 426 66 182 1:56:44
2 Jean Bolley Bath MI US 341 65 200 2:04:24
Top

Male 70 to 74

Place Name City Bib No Age Overall Total Time
1 Roger Wotila Cadillac MI US 324 70 159 1:44:43
Top

Female 70 to 74

Place Name City Bib No Age Overall Total Time
1 Eleanor Defever Livonia MI US 434 70 216 2:27:21